createdAt,value
2022-11-26T00:02:18.928Z,96.82
2022-11-26T00:04:48.009Z,94.95
2022-11-26T00:07:19.208Z,95.97
2022-11-26T00:09:46.667Z,97.48
2022-11-26T00:12:16.893Z,97.83
2022-11-26T00:14:44.591Z,100.00
2022-11-26T00:17:13.200Z,97.45
2022-11-26T00:19:41.259Z,97.71
2022-11-26T00:22:21.947Z,96.33
2022-11-26T00:24:50.442Z,97.76
2022-11-26T00:27:18.010Z,96.94
2022-11-26T00:29:45.496Z,97.54
2022-11-26T00:32:16.827Z,100.00
2022-11-26T00:34:44.345Z,99.73
2022-11-26T00:37:20.461Z,100.00
2022-11-26T00:39:48.253Z,96.56
2022-11-26T00:42:15.726Z,99.59
2022-11-26T00:44:43.135Z,100.00
2022-11-26T00:47:10.910Z,97.73
2022-11-26T00:49:38.514Z,97.98
2022-11-26T00:52:15.652Z,98.17
2022-11-26T00:54:44.488Z,97.89
2022-11-26T00:57:12.054Z,98.81
2022-11-26T00:59:39.487Z,96.87
2022-11-26T01:02:07.010Z,97.43
2022-11-26T01:04:34.907Z,95.34
2022-11-26T01:07:02.631Z,96.57
2022-11-26T01:09:30.117Z,95.52
2022-11-26T01:11:58.840Z,94.31
2022-11-26T01:14:26.372Z,96.62
2022-11-26T01:16:56.770Z,96.42
2022-11-26T01:19:24.418Z,97.19
2022-11-26T01:21:51.789Z,100.00
2022-11-26T01:24:19.173Z,99.20
2022-11-26T01:26:46.757Z,97.39
2022-11-26T01:29:17.947Z,98.35
2022-11-26T01:31:45.883Z,99.23
2022-11-26T01:34:13.605Z,99.24
2022-11-26T01:36:42.333Z,96.05
2022-11-26T01:39:16.171Z,96.94
2022-11-26T01:41:46.837Z,98.10
2022-11-26T01:44:20.166Z,97.87
2022-11-26T01:46:48.216Z,96.87
2022-11-26T01:49:18.032Z,97.48
2022-11-26T01:51:46.987Z,97.61
2022-11-26T01:54:15.526Z,97.61
2022-11-26T01:56:46.536Z,96.54
2022-11-26T01:59:22.896Z,96.15
2022-11-26T02:01:52.386Z,95.47
2022-11-26T02:04:22.547Z,94.78
2022-11-26T02:06:52.202Z,93.55
2022-11-26T02:09:20.217Z,94.21
2022-11-26T02:11:47.778Z,94.62
2022-11-26T02:14:18.854Z,92.99
2022-11-26T02:16:59.062Z,94.42
2022-11-26T02:19:46.406Z,93.79
2022-11-26T02:22:32.828Z,93.88
2022-11-26T02:25:13.066Z,94.30
2022-11-26T02:28:03.493Z,96.14
2022-11-26T02:30:43.392Z,94.01
2022-11-26T02:33:17.130Z,95.66
2022-11-26T02:35:48.311Z,96.41
2022-11-26T02:38:21.433Z,95.01
2022-11-26T02:40:49.228Z,94.72
2022-11-26T02:43:17.650Z,94.19
2022-11-26T02:45:49.270Z,92.64
2022-11-26T02:48:22.936Z,94.52
2022-11-26T02:50:54.948Z,96.59
2022-11-26T02:53:24.697Z,99.00
2022-11-26T02:55:56.509Z,98.16
2022-11-26T02:58:23.932Z,96.03
2022-11-26T03:00:55.191Z,99.63
2022-11-26T03:03:26.181Z,98.82
2022-11-26T03:05:57.255Z,98.78
2022-11-26T03:08:26.478Z,96.78
2022-11-26T03:10:54.002Z,99.44
2022-11-26T03:13:21.534Z,98.51
2022-11-26T03:15:49.159Z,97.58
2022-11-26T03:18:18.062Z,98.36
2022-11-26T03:20:45.498Z,100.00
2022-11-26T03:23:13.047Z,100.00
2022-11-26T03:25:40.496Z,100.00
2022-11-26T03:28:08.168Z,100.00
2022-11-26T03:30:35.842Z,100.00
2022-11-26T03:33:03.292Z,100.00
2022-11-26T03:35:32.014Z,100.00
2022-11-26T03:37:59.403Z,100.00
2022-11-26T03:40:26.846Z,100.00
2022-11-26T03:42:54.271Z,100.00
2022-11-26T03:45:21.685Z,98.20
2022-11-26T03:47:49.125Z,97.84
2022-11-26T03:50:16.685Z,98.47
2022-11-26T03:52:45.446Z,97.60
2022-11-26T03:55:12.827Z,97.08
2022-11-26T03:57:40.234Z,97.65
2022-11-26T04:00:09.883Z,98.24
2022-11-26T04:02:38.190Z,98.97
2022-11-26T04:05:06.833Z,98.84
2022-11-26T04:07:34.280Z,98.75
2022-11-26T04:10:03.272Z,99.20
2022-11-26T04:12:30.673Z,97.14
2022-11-26T04:14:58.075Z,98.61
2022-11-26T04:17:25.560Z,98.43
2022-11-26T04:19:53.087Z,98.72
2022-11-26T04:22:20.531Z,98.56
2022-11-26T04:24:48.002Z,100.00
2022-11-26T04:27:16.714Z,100.00
2022-11-26T04:29:44.111Z,100.00
2022-11-26T04:32:11.563Z,98.91
2022-11-26T04:34:39.240Z,100.00
2022-11-26T04:37:06.852Z,100.00
2022-11-26T04:39:34.503Z,100.00
2022-11-26T04:42:01.918Z,100.00
2022-11-26T04:44:30.692Z,100.00
2022-11-26T04:46:58.087Z,100.00
2022-11-26T04:49:25.778Z,100.00
2022-11-26T04:51:53.251Z,100.00
2022-11-26T04:54:20.682Z,100.00
2022-11-26T04:56:48.078Z,100.00
2022-11-26T04:59:15.479Z,100.00
2022-11-26T05:01:44.522Z,100.00
2022-11-26T05:04:12.059Z,100.00
2022-11-26T05:06:39.437Z,100.00
2022-11-26T05:09:06.907Z,100.00
2022-11-26T05:11:34.297Z,100.00
2022-11-26T05:14:01.742Z,100.00
2022-11-26T05:16:29.310Z,100.00
2022-11-26T05:18:58.092Z,100.00
2022-11-26T05:21:25.532Z,100.00
2022-11-26T05:23:52.984Z,100.00
2022-11-26T05:26:20.549Z,100.00
2022-11-26T05:28:48.068Z,100.00
2022-11-26T05:31:15.531Z,100.00
2022-11-26T05:33:43.049Z,100.00
2022-11-26T05:36:11.842Z,100.00
2022-11-26T05:38:39.230Z,100.00
2022-11-26T05:41:06.652Z,100.00
2022-11-26T05:43:34.070Z,100.00
2022-11-26T05:46:04.950Z,100.00
2022-11-26T05:48:32.504Z,100.00
2022-11-26T05:51:00.723Z,100.00
2022-11-26T05:53:30.420Z,100.00
2022-11-26T05:55:57.856Z,100.00
2022-11-26T05:58:25.466Z,100.00
2022-11-26T06:00:53.026Z,100.00
2022-11-26T06:03:20.823Z,100.00
2022-11-26T06:05:48.611Z,100.00
2022-11-26T06:08:16.016Z,100.00
2022-11-26T06:10:45.423Z,100.00
2022-11-26T06:13:12.844Z,100.00
2022-11-26T06:15:40.280Z,100.00
2022-11-26T06:18:07.697Z,100.00
2022-11-26T06:20:35.452Z,100.00
2022-11-26T06:23:02.898Z,100.00
2022-11-26T06:25:30.311Z,100.00
2022-11-26T06:27:59.048Z,100.00
2022-11-26T06:30:26.408Z,100.00
2022-11-26T06:32:53.848Z,100.00
2022-11-26T06:35:21.238Z,100.00
2022-11-26T06:37:48.686Z,100.00
2022-11-26T06:40:18.204Z,100.00
2022-11-26T06:42:49.318Z,100.00
2022-11-26T06:45:18.510Z,100.00
2022-11-26T06:47:47.475Z,100.00
2022-11-26T06:50:15.562Z,100.00
2022-11-26T06:52:42.973Z,100.00
2022-11-26T06:55:10.807Z,100.00
2022-11-26T06:57:38.272Z,100.00
2022-11-26T07:00:07.122Z,100.00
2022-11-26T07:02:35.946Z,100.00
2022-11-26T07:05:03.443Z,95.62
2022-11-26T07:07:30.981Z,98.50
2022-11-26T07:09:58.427Z,99.44
2022-11-26T07:12:25.845Z,100.00
2022-11-26T07:14:53.255Z,100.00
2022-11-26T07:17:20.635Z,100.00
2022-11-26T07:19:50.064Z,100.00
2022-11-26T07:22:17.570Z,100.00
2022-11-26T07:24:44.967Z,100.00
2022-11-26T07:27:12.405Z,100.00
2022-11-26T07:29:39.806Z,100.00
2022-11-26T07:32:07.223Z,100.00
2022-11-26T07:34:34.870Z,100.00
2022-11-26T07:37:03.620Z,100.00
2022-11-26T07:39:31.146Z,100.00
2022-11-26T07:41:58.545Z,100.00
2022-11-26T07:44:25.989Z,100.00
2022-11-26T07:46:53.578Z,100.00
2022-11-26T07:49:20.993Z,100.00
2022-11-26T07:51:48.425Z,100.00
2022-11-26T07:54:17.175Z,100.00
2022-11-26T07:56:44.537Z,100.00
2022-11-26T07:59:12.184Z,100.00
2022-11-26T08:01:39.858Z,100.00
2022-11-26T08:04:07.954Z,100.00
2022-11-26T08:06:35.520Z,100.00
2022-11-26T08:09:04.734Z,100.00
2022-11-26T08:11:34.314Z,100.00
2022-11-26T08:14:04.510Z,100.00
2022-11-26T08:16:32.495Z,98.40
2022-11-26T08:19:02.287Z,98.17
2022-11-26T08:21:29.730Z,100.00
2022-11-26T08:23:57.166Z,100.00
2022-11-26T08:26:38.444Z,98.10
2022-11-26T08:29:08.556Z,98.55
2022-11-26T08:31:39.941Z,98.80
2022-11-26T08:34:13.848Z,97.69
2022-11-26T08:36:41.327Z,100.00
2022-11-26T08:39:10.055Z,98.87
2022-11-26T08:41:37.464Z,99.28
2022-11-26T08:44:06.673Z,98.60
2022-11-26T08:46:36.253Z,97.13
2022-11-26T08:49:04.403Z,96.31
2022-11-26T08:51:31.821Z,96.55
2022-11-26T08:53:59.224Z,97.08
2022-11-26T08:56:27.030Z,95.45
2022-11-26T08:58:54.451Z,94.28
2022-11-26T09:01:24.445Z,94.35
2022-11-26T09:03:55.357Z,96.34
2022-11-26T09:06:24.865Z,98.52
2022-11-26T09:09:10.057Z,97.16
2022-11-26T09:11:40.087Z,99.29
2022-11-26T09:14:08.356Z,96.32
2022-11-26T09:16:36.024Z,95.57
2022-11-26T09:19:06.180Z,97.35
2022-11-26T09:21:34.345Z,97.71
2022-11-26T09:24:02.027Z,98.05
2022-11-26T09:26:31.161Z,98.66
2022-11-26T09:28:58.728Z,96.69
2022-11-26T09:31:26.765Z,94.28
2022-11-26T09:33:56.083Z,96.91
2022-11-26T09:36:24.981Z,98.82
2022-11-26T09:38:54.626Z,96.89
2022-11-26T09:41:38.968Z,95.72
2022-11-26T09:44:16.217Z,97.65
2022-11-26T09:47:11.094Z,98.98
2022-11-26T09:49:45.012Z,98.22
2022-11-26T09:52:18.211Z,98.15
2022-11-26T09:54:46.630Z,99.01
2022-11-26T09:57:22.690Z,99.29
2022-11-26T09:59:52.913Z,96.54
2022-11-26T10:02:20.335Z,95.24
2022-11-26T10:04:49.002Z,97.00
2022-11-26T10:07:37.287Z,95.68
2022-11-26T10:10:14.493Z,98.09
2022-11-26T10:13:17.410Z,100.00
2022-11-26T10:15:44.935Z,100.00
2022-11-26T10:18:24.339Z,100.00
2022-11-26T10:21:14.473Z,100.00
2022-11-26T10:23:48.699Z,100.00
2022-11-26T10:26:17.750Z,100.00
2022-11-26T10:28:47.154Z,99.53
2022-11-26T10:31:21.545Z,99.67
2022-11-26T10:33:55.636Z,100.00
2022-11-26T10:36:28.616Z,100.00
2022-11-26T10:38:57.372Z,100.00
2022-11-26T10:41:27.200Z,100.00
2022-11-26T10:43:54.716Z,100.00
2022-11-26T10:46:34.174Z,96.22
2022-11-26T10:49:16.719Z,91.92
2022-11-26T10:51:49.378Z,89.06
2022-11-26T10:54:30.739Z,88.53
2022-11-26T10:57:04.965Z,87.08
2022-11-26T10:59:37.907Z,86.61
2022-11-26T11:02:23.509Z,89.30
2022-11-26T11:04:53.677Z,85.55
2022-11-26T11:07:42.760Z,85.53
2022-11-26T11:10:18.284Z,86.05
2022-11-26T11:12:50.303Z,83.53
2022-11-26T11:15:25.000Z,85.84
2022-11-26T11:17:59.037Z,86.48
2022-11-26T11:20:35.591Z,92.87
2022-11-26T11:23:07.157Z,92.91
2022-11-26T11:25:38.416Z,91.97
2022-11-26T11:28:15.386Z,92.16
2022-11-26T11:30:44.406Z,96.38
2022-11-26T11:33:18.652Z,96.32
2022-11-26T11:35:51.078Z,96.26
2022-11-26T11:38:24.330Z,96.21
2022-11-26T11:40:53.241Z,95.02
2022-11-26T11:43:23.058Z,94.35
2022-11-26T11:46:08.927Z,92.57
2022-11-26T11:48:46.855Z,93.11
2022-11-26T11:51:21.291Z,93.64
2022-11-26T11:53:57.420Z,92.85
2022-11-26T11:56:32.050Z,91.63
2022-11-26T11:59:37.057Z,91.32
2022-11-26T12:02:23.775Z,91.86
2022-11-26T12:05:21.432Z,91.90
2022-11-26T12:07:59.095Z,90.88
2022-11-26T12:10:35.793Z,90.58
2022-11-26T12:13:10.784Z,91.09
2022-11-26T12:15:46.094Z,91.44
2022-11-26T12:18:23.453Z,92.61
2022-11-26T12:20:55.075Z,98.12
2022-11-26T12:23:30.616Z,94.01
2022-11-26T12:26:06.268Z,94.29
2022-11-26T12:28:41.016Z,94.65
2022-11-26T12:31:13.872Z,96.50
2022-11-26T12:33:47.348Z,95.46
2022-11-26T12:36:21.355Z,95.36
2022-11-26T12:38:54.092Z,93.94
2022-11-26T12:41:26.259Z,95.65
2022-11-26T12:44:02.222Z,90.26
2022-11-26T12:46:35.903Z,92.09
2022-11-26T12:49:11.138Z,93.38
2022-11-26T12:51:44.296Z,93.04
2022-11-26T12:54:17.643Z,94.14
2022-11-26T12:56:55.301Z,91.61
2022-11-26T12:59:31.853Z,90.94
2022-11-26T13:01:59.840Z,92.46
2022-11-26T13:04:37.663Z,92.07
2022-11-26T13:07:18.460Z,90.76
2022-11-26T13:09:59.039Z,88.38
2022-11-26T13:12:37.260Z,88.26
2022-11-26T13:15:12.589Z,87.55
2022-11-26T13:17:43.771Z,88.41
2022-11-26T13:20:29.935Z,86.58
2022-11-26T13:23:09.490Z,87.45
2022-11-26T13:25:56.108Z,88.50
2022-11-26T13:28:36.132Z,90.27
2022-11-26T13:31:24.240Z,88.19
2022-11-26T13:34:07.296Z,86.87
2022-11-26T13:36:57.751Z,87.81
2022-11-26T13:39:53.608Z,87.85
2022-11-26T13:42:42.285Z,89.30
2022-11-26T13:45:35.825Z,95.02
2022-11-26T13:48:10.348Z,92.75
2022-11-26T13:50:44.819Z,93.00
2022-11-26T13:53:16.894Z,92.84
2022-11-26T13:55:48.833Z,92.56
2022-11-26T13:58:21.895Z,91.01
2022-11-26T14:00:49.340Z,91.77
2022-11-26T14:03:46.393Z,95.87
2022-11-26T14:06:15.042Z,96.18
2022-11-26T14:08:44.959Z,95.32
2022-11-26T14:11:18.382Z,93.37
2022-11-26T14:14:26.909Z,93.91
2022-11-26T14:17:14.523Z,94.28
2022-11-26T14:20:09.565Z,93.58
2022-11-26T14:22:38.731Z,92.93
2022-11-26T14:25:09.804Z,89.49
2022-11-26T14:27:40.713Z,89.49
2022-11-26T14:30:25.509Z,91.22
2022-11-26T14:33:09.430Z,89.12
2022-11-26T14:35:41.566Z,89.64
2022-11-26T14:38:25.957Z,86.66
2022-11-26T14:40:58.414Z,87.79
2022-11-26T14:43:25.846Z,87.00
2022-11-26T14:46:04.809Z,88.87
2022-11-26T14:48:36.364Z,88.03
2022-11-26T14:51:09.324Z,87.50
2022-11-26T14:53:41.297Z,87.92
2022-11-26T14:56:10.780Z,87.54
2022-11-26T14:58:43.221Z,88.02
2022-11-26T15:01:19.875Z,91.25
2022-11-26T15:03:59.012Z,98.75
2022-11-26T15:06:30.229Z,94.03
2022-11-26T15:09:10.890Z,91.50
2022-11-26T15:11:41.563Z,88.82
2022-11-26T15:14:19.524Z,89.41
2022-11-26T15:16:54.380Z,88.59
2022-11-26T15:19:22.577Z,93.98
2022-11-26T15:21:52.031Z,92.26
2022-11-26T15:24:19.876Z,85.31
2022-11-26T15:26:48.840Z,89.63
2022-11-26T15:29:34.936Z,89.87
2022-11-26T15:32:03.097Z,85.13
2022-11-26T15:34:33.124Z,85.77
2022-11-26T15:37:02.040Z,86.66
2022-11-26T15:39:31.534Z,85.37
2022-11-26T15:42:04.408Z,85.10
2022-11-26T15:44:40.557Z,89.26
2022-11-26T15:47:20.899Z,87.11
2022-11-26T15:49:52.015Z,84.86
2022-11-26T15:52:23.538Z,85.36
2022-11-26T15:55:15.664Z,86.62
2022-11-26T15:57:44.728Z,84.70
2022-11-26T16:00:22.157Z,82.82
2022-11-26T16:02:51.456Z,81.39
2022-11-26T16:05:30.505Z,83.06
2022-11-26T16:08:02.237Z,83.92
2022-11-26T16:10:35.294Z,84.39
2022-11-26T16:13:08.895Z,81.39
2022-11-26T16:15:36.959Z,81.52
2022-11-26T16:18:13.034Z,83.64
2022-11-26T16:20:40.649Z,84.55
2022-11-26T16:23:22.399Z,84.40
2022-11-26T16:26:13.256Z,87.22
2022-11-26T16:28:40.793Z,85.27
2022-11-26T16:31:08.518Z,83.98
2022-11-26T16:33:36.228Z,84.75
2022-11-26T16:36:16.477Z,83.06
2022-11-26T16:38:45.906Z,85.21
2022-11-26T16:41:14.853Z,85.03
2022-11-26T16:43:42.768Z,86.39
2022-11-26T16:46:14.967Z,87.66
2022-11-26T16:48:44.282Z,85.39
2022-11-26T16:51:14.013Z,84.80
2022-11-26T16:53:41.618Z,85.96
2022-11-26T16:56:18.967Z,85.63
2022-11-26T16:58:47.256Z,84.43
2022-11-26T17:01:14.764Z,84.43
2022-11-26T17:03:48.205Z,83.84
2022-11-26T17:06:25.011Z,84.36
2022-11-26T17:08:55.162Z,85.62
2022-11-26T17:11:24.758Z,84.83
2022-11-26T17:13:52.327Z,85.31
2022-11-26T17:16:22.098Z,84.79
2022-11-26T17:18:53.015Z,85.28
2022-11-26T17:21:20.855Z,85.43
2022-11-26T17:23:48.380Z,85.74
2022-11-26T17:26:20.574Z,85.06
2022-11-26T17:28:49.983Z,86.14
2022-11-26T17:31:17.807Z,86.20
2022-11-26T17:33:45.427Z,86.25
2022-11-26T17:36:17.240Z,86.75
2022-11-26T17:38:45.546Z,87.36
2022-11-26T17:41:13.290Z,86.58
2022-11-26T17:43:40.880Z,86.17
2022-11-26T17:46:15.842Z,86.53
2022-11-26T17:48:43.841Z,87.11
2022-11-26T17:51:14.224Z,88.20
2022-11-26T17:53:42.514Z,87.99
2022-11-26T17:56:17.309Z,88.47
2022-11-26T17:58:45.198Z,87.28
2022-11-26T18:01:14.850Z,87.22
2022-11-26T18:03:42.658Z,88.24
2022-11-26T18:06:15.700Z,88.17
2022-11-26T18:08:43.447Z,87.30
2022-11-26T18:11:12.023Z,88.54
2022-11-26T18:13:39.672Z,87.74
2022-11-26T18:16:07.315Z,87.59
2022-11-26T18:18:36.189Z,88.54
2022-11-26T18:21:03.693Z,89.07
2022-11-26T18:23:31.504Z,88.34
2022-11-26T18:25:58.901Z,88.80
2022-11-26T18:28:26.312Z,88.17
2022-11-26T18:30:58.167Z,88.72
2022-11-26T18:33:27.101Z,88.06
2022-11-26T18:35:58.782Z,87.56
2022-11-26T18:38:30.761Z,88.68
2022-11-26T18:41:05.592Z,87.60
2022-11-26T18:43:33.533Z,86.71
2022-11-26T18:46:04.055Z,87.98
2022-11-26T18:48:34.240Z,87.96
2022-11-26T18:51:03.463Z,87.25
2022-11-26T18:53:31.513Z,89.77
2022-11-26T18:55:59.791Z,88.26
2022-11-26T18:58:30.944Z,90.90
2022-11-26T19:00:59.555Z,90.14
2022-11-26T19:03:28.174Z,88.67
2022-11-26T19:05:56.140Z,89.30
2022-11-26T19:08:28.075Z,89.52
2022-11-26T19:10:55.474Z,92.83
2022-11-26T19:13:27.577Z,91.68
2022-11-26T19:16:02.206Z,92.94
2022-11-26T19:18:30.645Z,88.88
2022-11-26T19:21:00.359Z,86.88
2022-11-26T19:23:29.452Z,85.02
2022-11-26T19:25:57.019Z,86.51
2022-11-26T19:28:26.346Z,83.36
2022-11-26T19:31:05.086Z,84.06
2022-11-26T19:33:33.399Z,84.61
2022-11-26T19:36:04.868Z,85.34
2022-11-26T19:38:34.042Z,85.74
2022-11-26T19:41:02.418Z,86.37
2022-11-26T19:43:31.901Z,86.20
2022-11-26T19:46:03.774Z,87.14
2022-11-26T19:48:34.608Z,91.21
2022-11-26T19:51:02.566Z,89.03
2022-11-26T19:53:30.111Z,86.76
2022-11-26T19:56:02.535Z,86.42
2022-11-26T19:58:31.197Z,87.70
2022-11-26T20:00:59.099Z,87.46
2022-11-26T20:03:29.845Z,90.56
2022-11-26T20:06:06.063Z,91.44
2022-11-26T20:08:34.436Z,89.73
2022-11-26T20:11:08.893Z,87.75
2022-11-26T20:13:38.011Z,88.30
2022-11-26T20:16:07.063Z,87.63
2022-11-26T20:18:34.842Z,90.73
2022-11-26T20:21:03.937Z,88.09
2022-11-26T20:23:34.762Z,88.12
2022-11-26T20:26:02.513Z,87.66
2022-11-26T20:28:31.484Z,90.44
2022-11-26T20:30:59.004Z,88.58
2022-11-26T20:33:26.823Z,87.45
2022-11-26T20:35:55.631Z,89.27
2022-11-26T20:38:23.399Z,89.22
2022-11-26T20:41:00.073Z,91.15
2022-11-26T20:43:35.494Z,94.46
2022-11-26T20:46:06.590Z,94.44
2022-11-26T20:48:39.010Z,91.22
2022-11-26T20:51:08.657Z,90.70
2022-11-26T20:53:37.676Z,88.39
2022-11-26T20:56:06.367Z,88.04
2022-11-26T20:58:33.929Z,89.15
2022-11-26T21:01:01.469Z,88.44
2022-11-26T21:03:31.876Z,89.03
2022-11-26T21:06:02.869Z,90.04
2022-11-26T21:08:30.478Z,89.14
2022-11-26T21:10:57.847Z,91.50
2022-11-26T21:13:25.311Z,91.75
2022-11-26T21:15:52.671Z,87.62
2022-11-26T21:18:20.267Z,90.22
2022-11-26T21:20:48.983Z,89.60
2022-11-26T21:23:16.412Z,89.15
2022-11-26T21:25:44.337Z,88.07
2022-11-26T21:28:14.768Z,88.54
2022-11-26T21:30:42.946Z,88.50
2022-11-26T21:33:10.438Z,88.87
2022-11-26T21:35:38.436Z,89.32
2022-11-26T21:38:07.228Z,87.96
2022-11-26T21:40:34.715Z,87.99
2022-11-26T21:43:02.349Z,87.65
2022-11-26T21:45:30.008Z,88.16
2022-11-26T21:47:57.434Z,88.46
2022-11-26T21:50:24.812Z,87.36
2022-11-26T21:52:52.246Z,87.80
2022-11-26T21:55:22.119Z,87.60
2022-11-26T21:57:49.606Z,88.53
2022-11-26T22:00:18.253Z,88.77
2022-11-26T22:02:45.806Z,88.94
2022-11-26T22:05:13.329Z,87.90
2022-11-26T22:07:40.837Z,88.76
2022-11-26T22:10:09.871Z,88.10
2022-11-26T22:12:38.667Z,88.48
2022-11-26T22:15:06.994Z,90.68
2022-11-26T22:17:34.452Z,89.05
2022-11-26T22:20:01.850Z,88.33
2022-11-26T22:22:29.353Z,89.98
2022-11-26T22:24:56.791Z,89.68
2022-11-26T22:27:24.318Z,90.61
2022-11-26T22:29:53.131Z,89.73
2022-11-26T22:32:21.741Z,89.02
2022-11-26T22:34:49.145Z,89.58
2022-11-26T22:37:16.604Z,88.01
2022-11-26T22:39:44.030Z,87.78
2022-11-26T22:42:13.747Z,89.31
2022-11-26T22:44:41.219Z,88.29
2022-11-26T22:47:10.123Z,90.19
2022-11-26T22:49:38.552Z,92.29
2022-11-26T22:52:06.370Z,91.13
2022-11-26T22:54:33.773Z,89.67
2022-11-26T22:57:01.299Z,90.49
2022-11-26T22:59:28.811Z,89.05
2022-11-26T23:01:56.801Z,89.39
2022-11-26T23:04:25.571Z,89.37
2022-11-26T23:06:52.968Z,89.53
2022-11-26T23:09:20.410Z,88.32
2022-11-26T23:11:47.869Z,89.43
2022-11-26T23:14:15.341Z,90.07
2022-11-26T23:16:43.907Z,90.47
2022-11-26T23:19:14.710Z,90.19
2022-11-26T23:21:44.704Z,92.03
2022-11-26T23:24:12.327Z,90.37
2022-11-26T23:26:41.242Z,90.18
2022-11-26T23:29:10.077Z,90.35
2022-11-26T23:31:39.836Z,88.35
2022-11-26T23:34:08.945Z,88.84
2022-11-26T23:36:37.411Z,89.77
2022-11-26T23:39:07.992Z,91.20
2022-11-26T23:41:35.489Z,90.12
2022-11-26T23:44:03.430Z,89.65
2022-11-26T23:46:33.082Z,89.21
2022-11-26T23:49:00.499Z,93.54
2022-11-26T23:51:31.345Z,90.43
2022-11-26T23:53:59.187Z,89.55
2022-11-26T23:56:30.116Z,89.21
2022-11-26T23:58:59.362Z,88.07
